Costa Serena — ICAZ — position and weather

sailwx.info

Track history (hours):
 
Tides and Currents Weather Stations Pressure Air Temp Water Temp Dewpoint Dewpoint Depression Visibility Wind Speed Wind Dir Waves Ship Positions

Costa Serena

Last reported at 2017-Aug-22 09:34 UTC. Time now 2017-Aug-23 13:37 UTC.
Position N 31°18' E 121°46'.

Length 290 m.

Type: Ship. MMSI: 247187600.

Date/timePositionNaut miles runAvg speedWind from/ knotsBaromVisibWave heightAir tempDewpointWater temp
2017-Aug-22 09:34N 31°18' E 121°46'115.0
2017-Aug-22 09:30N 31°19' E 121°45'612.5
2017-Aug-22 09:00N 31°22' E 121°38'612.1
2017-Aug-22 08:30N 31°25' E 121°32'1 2.6
2017-Aug-22 07:57N 31°25' E 121°30'0 0.0
2017-Aug-22 07:26N 31°25' E 121°30'0 0.0
2017-Aug-22 06:56N 31°25' E 121°30'0 0.0
2017-Aug-22 06:20N 31°25' E 121°30'0 0.0
2017-Aug-22 05:56N 31°25' E 121°30'0 0.0
2017-Aug-22 05:07N 31°25' E 121°30'0 0.0
2017-Aug-22 04:55N 31°25' E 121°30'0 0.0
2017-Aug-22 04:25N 31°25' E 121°30'0 0.0
2017-Aug-22 03:55N 31°25' E 121°30'0 0.0
2017-Aug-22 03:19N 31°25' E 121°30'0 0.0
2017-Aug-22 02:54N 31°25' E 121°30'0 0.0
2017-Aug-22 02:30N 31°25' E 121°30'0 0.0
2017-Aug-22 02:00N 31°25' E 121°30'0 0.0
2017-Aug-22 01:30N 31°25' E 121°30'2 4.5
2017-Aug-22 01:00N 31°24' E 121°33'510.9
2017-Aug-22 00:30N 31°22' E 121°39'612.3
2017-Aug-22 00:00N 31°19' E 121°45'611.7
2017-Aug-21 23:30N 31°16' E 121°51'  
2017-Aug-17 21:48N 31°06' E 124°37'517.9
2017-Aug-17 21:30N 31°05' E 124°31'917.7
2017-Aug-17 21:00N 31°05' E 124°21'6017.9
2017-Aug-17 17:38N 31°05' E 123°10'218.2
2017-Aug-17 17:30N 31°05' E 123°08'1018.4
2017-Aug-17 16:58N 31°05' E 122°56'818.1
2017-Aug-17 16:30N 31°05' E 122°46'815.9
2017-Aug-17 16:00N 31°05' E 122°37'612.5
2017-Aug-17 15:29N 31°05' E 122°30'511.2
2017-Aug-17 15:00N 31°05' E 122°23'713.6
2017-Aug-17 14:29N 31°08' E 122°15'613.3
2017-Aug-17 14:00N 31°12' E 122°09'611.6
2017-Aug-17 13:30N 31°14' E 122°03'511.1
2017-Aug-17 13:00N 31°15' E 121°57'612.2
2017-Aug-17 12:29N 31°17' E 121°50'611.7
2017-Aug-17 12:00N 31°19' E 121°44'4 8.7
2017-Aug-17 11:30N 31°21' E 121°39'2 3.9
2017-Aug-17 10:59N 31°22' E 121°37'1 2.4
2017-Aug-17 10:29N 31°23' E 121°36'1 2.4
2017-Aug-17 09:59N 31°23' E 121°35'2 3.3
2017-Aug-17 09:30N 31°24' E 121°33'2 4.2
2017-Aug-17 08:56N 31°25' E 121°30'0 0.1
2017-Aug-17 08:29N 31°25' E 121°30'0 0.0
2017-Aug-17 07:59N 31°25' E 121°30'0 0.0
2017-Aug-17 07:25N 31°25' E 121°30'0 0.0
2017-Aug-17 06:58N 31°25' E 121°30'0 0.0
2017-Aug-17 06:28N 31°25' E 121°30'0 0.0
2017-Aug-17 05:58N 31°25' E 121°30'0 0.0
2017-Aug-17 05:27N 31°25' E 121°30'0 0.0
2017-Aug-17 04:57N 31°25' E 121°30'0 0.0
2017-Aug-17 04:27N 31°25' E 121°30'0 0.0
2017-Aug-17 04:00N 31°25' E 121°30'0 0.0
2017-Aug-17 03:30N 31°25' E 121°30'0 0.0
2017-Aug-17 02:59N 31°25' E 121°30'0 0.0
2017-Aug-17 02:29N 31°25' E 121°30'0 0.0
2017-Aug-17 01:59N 31°25' E 121°30'0 0.0
2017-Aug-17 01:29N 31°25' E 121°30'0 0.0
2017-Aug-17 00:58N 31°25' E 121°30'0 0.5
2017-Aug-17 00:30N 31°25' E 121°31'4 7.6
2017-Aug-17 00:00N 31°23' E 121°35'510.2
2017-Aug-16 23:30N 31°21' E 121°40'510.9
2017-Aug-16 23:00N 31°18' E 121°46'4 8.2
2017-Aug-16 22:30N 31°17' E 121°50'5 9.0
2017-Aug-16 22:00N 31°16' E 121°55'5 9.4
2017-Aug-16 21:30N 31°15' E 122°00'4 8.4
2017-Aug-16 21:00N 31°14' E 122°05'3 6.3
2017-Aug-16 20:30N 31°12' E 122°08'4 8.5
2017-Aug-16 20:00N 31°10' E 122°12'4 7.4
2017-Aug-16 19:30N 31°08' E 122°16'3 6.3
2017-Aug-16 19:00N 31°06' E 122°19'611.8
2017-Aug-16 18:30N 31°07' E 122°26'8 9.3
2017-Aug-16 17:39N 31°07' E 122°35'1814.9
2017-Aug-16 16:26N 31°07' E 122°57'  
2017-Aug-13 14:47N 31°06' E 122°60'310.8
2017-Aug-13 14:29N 31°05' E 122°56'511.0
2017-Aug-13 14:00N 31°05' E 122°50'611.3
2017-Aug-13 13:26N 31°06' E 122°42'511.7
2017-Aug-13 13:00N 31°06' E 122°37'713.8
2017-Aug-13 12:30N 31°05' E 122°28'510.6
2017-Aug-13 12:00N 31°06' E 122°22'713.2
2017-Aug-13 11:30N 31°08' E 122°15'715.0
2017-Aug-13 11:00N 31°12' E 122°08'714.8
2017-Aug-13 10:30N 31°15' E 121°60'714.3
2017-Aug-13 10:00N 31°16' E 121°52'713.7
2017-Aug-13 09:30N 31°19' E 121°44'612.3
2017-Aug-13 09:00N 31°22' E 121°38'611.5
2017-Aug-13 08:30N 31°25' E 121°32'1 2.7
2017-Aug-13 07:59N 31°25' E 121°30'0 0.0
2017-Aug-13 07:29N 31°25' E 121°30'0 0.0
2017-Aug-13 06:56N 31°25' E 121°30'0 0.0
2017-Aug-13 06:29N 31°25' E 121°30'0 0.0
2017-Aug-13 05:59N 31°25' E 121°30'0 0.0
2017-Aug-13 05:28N 31°25' E 121°30'0 0.0
2017-Aug-13 04:58N 31°25' E 121°30'0 0.0
2017-Aug-13 04:28N 31°25' E 121°30'0 0.0
2017-Aug-13 03:58N 31°25' E 121°30'0 0.0
2017-Aug-13 03:30N 31°25' E 121°30'0 0.0
2017-Aug-13 03:00N 31°25' E 121°30'0 0.0
2017-Aug-13 02:30N 31°25' E 121°30'0 0.0
2017-Aug-13 02:00N 31°25' E 121°30'0 0.0
2017-Aug-13 01:27N 31°25' E 121°30'0 0.0
2017-Aug-13 00:59N 31°25' E 121°30'0 0.0
2017-Aug-13 00:29N 31°25' E 121°30'0 0.0
2017-Aug-12 23:59N 31°25' E 121°30'0 0.0
2017-Aug-12 23:29N 31°25' E 121°30'0 0.0
2017-Aug-12 22:59N 31°25' E 121°30'0 0.0
2017-Aug-12 22:25N 31°25' E 121°30'0 0.0
2017-Aug-12 21:52N 31°25' E 121°30'0 0.0
2017-Aug-12 21:28N 31°25' E 121°30'0 0.0
2017-Aug-12 20:58N 31°25' E 121°30'0 0.0
2017-Aug-12 20:27N 31°25' E 121°30'0 0.0
2017-Aug-12 20:00N 31°25' E 121°30'1 2.7
2017-Aug-12 19:30N 31°25' E 121°32'5 9.4
2017-Aug-12 19:00N 31°22' E 121°37'5 9.6
2017-Aug-12 18:30N 31°20' E 121°42'5 9.5
2017-Aug-12 18:00N 31°18' E 121°47'510.5
2017-Aug-12 17:30N 31°16' E 121°52'611.3
2017-Aug-12 17:00N 31°15' E 121°59'611.3
2017-Aug-12 16:30N 31°14' E 122°05'510.5
2017-Aug-12 16:00N 31°11' E 122°10'5 9.1
2017-Aug-12 15:30N 31°08' E 122°15'5 9.0
2017-Aug-12 15:00N 31°06' E 122°19'611.9
2017-Aug-12 14:30N 31°07' E 122°26'4 8.3
2017-Aug-12 13:58N 31°07' E 122°32'611.4
2017-Aug-12 13:26N 31°07' E 122°39'  
Track history (hours):
 
Tides and Currents Weather Stations Pressure Air Temp Water Temp Dewpoint Dewpoint Depression Visibility Wind Speed Wind Dir Waves Ship Positions

Costa Serena

Last reported at 2017-Aug-22 09:34 UTC. Time now 2017-Aug-23 13:37 UTC.
Position N 31°18' E 121°46'.

Length 290 m.

Type: Ship. MMSI: 247187600.

Date/timePositionNaut miles runAvg speedWind from/ knotsBaromVisibWave heightAir tempDewpointWater temp
2017-Aug-22 09:34N 31°18' E 121°46'115.0
2017-Aug-22 09:30N 31°19' E 121°45'612.5
2017-Aug-22 09:00N 31°22' E 121°38'612.1
2017-Aug-22 08:30N 31°25' E 121°32'1 2.6
2017-Aug-22 07:57N 31°25' E 121°30'0 0.0
2017-Aug-22 07:26N 31°25' E 121°30'0 0.0
2017-Aug-22 06:56N 31°25' E 121°30'0 0.0
2017-Aug-22 06:20N 31°25' E 121°30'0 0.0
2017-Aug-22 05:56N 31°25' E 121°30'0 0.0
2017-Aug-22 05:07N 31°25' E 121°30'0 0.0
2017-Aug-22 04:55N 31°25' E 121°30'0 0.0
2017-Aug-22 04:25N 31°25' E 121°30'0 0.0
2017-Aug-22 03:55N 31°25' E 121°30'0 0.0
2017-Aug-22 03:19N 31°25' E 121°30'0 0.0
2017-Aug-22 02:54N 31°25' E 121°30'0 0.0
2017-Aug-22 02:30N 31°25' E 121°30'0 0.0
2017-Aug-22 02:00N 31°25' E 121°30'0 0.0
2017-Aug-22 01:30N 31°25' E 121°30'2 4.5
2017-Aug-22 01:00N 31°24' E 121°33'510.9
2017-Aug-22 00:30N 31°22' E 121°39'612.3
2017-Aug-22 00:00N 31°19' E 121°45'611.7
2017-Aug-21 23:30N 31°16' E 121°51'  
2017-Aug-17 21:48N 31°06' E 124°37'517.9
2017-Aug-17 21:30N 31°05' E 124°31'917.7
2017-Aug-17 21:00N 31°05' E 124°21'6017.9
2017-Aug-17 17:38N 31°05' E 123°10'218.2
2017-Aug-17 17:30N 31°05' E 123°08'1018.4
2017-Aug-17 16:58N 31°05' E 122°56'818.1
2017-Aug-17 16:30N 31°05' E 122°46'815.9
2017-Aug-17 16:00N 31°05' E 122°37'612.5
2017-Aug-17 15:29N 31°05' E 122°30'511.2
2017-Aug-17 15:00N 31°05' E 122°23'713.6
2017-Aug-17 14:29N 31°08' E 122°15'613.3
2017-Aug-17 14:00N 31°12' E 122°09'611.6
2017-Aug-17 13:30N 31°14' E 122°03'511.1
2017-Aug-17 13:00N 31°15' E 121°57'612.2
2017-Aug-17 12:29N 31°17' E 121°50'611.7
2017-Aug-17 12:00N 31°19' E 121°44'4 8.7
2017-Aug-17 11:30N 31°21' E 121°39'2 3.9
2017-Aug-17 10:59N 31°22' E 121°37'1 2.4
2017-Aug-17 10:29N 31°23' E 121°36'1 2.4
2017-Aug-17 09:59N 31°23' E 121°35'2 3.3
2017-Aug-17 09:30N 31°24' E 121°33'2 4.2
2017-Aug-17 08:56N 31°25' E 121°30'0 0.1
2017-Aug-17 08:29N 31°25' E 121°30'0 0.0
2017-Aug-17 07:59N 31°25' E 121°30'0 0.0
2017-Aug-17 07:25N 31°25' E 121°30'0 0.0
2017-Aug-17 06:58N 31°25' E 121°30'0 0.0
2017-Aug-17 06:28N 31°25' E 121°30'0 0.0
2017-Aug-17 05:58N 31°25' E 121°30'0 0.0
2017-Aug-17 05:27N 31°25' E 121°30'0 0.0
2017-Aug-17 04:57N 31°25' E 121°30'0 0.0
2017-Aug-17 04:27N 31°25' E 121°30'0 0.0
2017-Aug-17 04:00N 31°25' E 121°30'0 0.0
2017-Aug-17 03:30N 31°25' E 121°30'0 0.0
2017-Aug-17 02:59N 31°25' E 121°30'0 0.0
2017-Aug-17 02:29N 31°25' E 121°30'0 0.0
2017-Aug-17 01:59N 31°25' E 121°30'0 0.0
2017-Aug-17 01:29N 31°25' E 121°30'0 0.0
2017-Aug-17 00:58N 31°25' E 121°30'0 0.5
2017-Aug-17 00:30N 31°25' E 121°31'4 7.6
2017-Aug-17 00:00N 31°23' E 121°35'510.2
2017-Aug-16 23:30N 31°21' E 121°40'510.9
2017-Aug-16 23:00N 31°18' E 121°46'4 8.2
2017-Aug-16 22:30N 31°17' E 121°50'5 9.0
2017-Aug-16 22:00N 31°16' E 121°55'5 9.4
2017-Aug-16 21:30N 31°15' E 122°00'4 8.4
2017-Aug-16 21:00N 31°14' E 122°05'3 6.3
2017-Aug-16 20:30N 31°12' E 122°08'4 8.5
2017-Aug-16 20:00N 31°10' E 122°12'4 7.4
2017-Aug-16 19:30N 31°08' E 122°16'3 6.3
2017-Aug-16 19:00N 31°06' E 122°19'611.8
2017-Aug-16 18:30N 31°07' E 122°26'8 9.3
2017-Aug-16 17:39N 31°07' E 122°35'1814.9
2017-Aug-16 16:26N 31°07' E 122°57'  
2017-Aug-13 14:47N 31°06' E 122°60'310.8
2017-Aug-13 14:29N 31°05' E 122°56'511.0
2017-Aug-13 14:00N 31°05' E 122°50'611.3
2017-Aug-13 13:26N 31°06' E 122°42'511.7
2017-Aug-13 13:00N 31°06' E 122°37'713.8
2017-Aug-13 12:30N 31°05' E 122°28'510.6
2017-Aug-13 12:00N 31°06' E 122°22'713.2
2017-Aug-13 11:30N 31°08' E 122°15'715.0
2017-Aug-13 11:00N 31°12' E 122°08'714.8
2017-Aug-13 10:30N 31°15' E 121°60'714.3
2017-Aug-13 10:00N 31°16' E 121°52'713.7
2017-Aug-13 09:30N 31°19' E 121°44'612.3
2017-Aug-13 09:00N 31°22' E 121°38'611.5
2017-Aug-13 08:30N 31°25' E 121°32'1 2.7
2017-Aug-13 07:59N 31°25' E 121°30'0 0.0
2017-Aug-13 07:29N 31°25' E 121°30'0 0.0
2017-Aug-13 06:56N 31°25' E 121°30'0 0.0
2017-Aug-13 06:29N 31°25' E 121°30'0 0.0
2017-Aug-13 05:59N 31°25' E 121°30'0 0.0
2017-Aug-13 05:28N 31°25' E 121°30'0 0.0
2017-Aug-13 04:58N 31°25' E 121°30'0 0.0
2017-Aug-13 04:28N 31°25' E 121°30'0 0.0
2017-Aug-13 03:58N 31°25' E 121°30'0 0.0
2017-Aug-13 03:30N 31°25' E 121°30'0 0.0
2017-Aug-13 03:00N 31°25' E 121°30'0 0.0
2017-Aug-13 02:30N 31°25' E 121°30'0 0.0
2017-Aug-13 02:00N 31°25' E 121°30'0 0.0
2017-Aug-13 01:27N 31°25' E 121°30'0 0.0
2017-Aug-13 00:59N 31°25' E 121°30'0 0.0
2017-Aug-13 00:29N 31°25' E 121°30'0 0.0
2017-Aug-12 23:59N 31°25' E 121°30'0 0.0
2017-Aug-12 23:29N 31°25' E 121°30'0 0.0
2017-Aug-12 22:59N 31°25' E 121°30'0 0.0
2017-Aug-12 22:25N 31°25' E 121°30'0 0.0
2017-Aug-12 21:52N 31°25' E 121°30'0 0.0
2017-Aug-12 21:28N 31°25' E 121°30'0 0.0
2017-Aug-12 20:58N 31°25' E 121°30'0 0.0
2017-Aug-12 20:27N 31°25' E 121°30'0 0.0
2017-Aug-12 20:00N 31°25' E 121°30'1 2.7
2017-Aug-12 19:30N 31°25' E 121°32'5 9.4
2017-Aug-12 19:00N 31°22' E 121°37'5 9.6
2017-Aug-12 18:30N 31°20' E 121°42'5 9.5
2017-Aug-12 18:00N 31°18' E 121°47'510.5
2017-Aug-12 17:30N 31°16' E 121°52'611.3
2017-Aug-12 17:00N 31°15' E 121°59'611.3
2017-Aug-12 16:30N 31°14' E 122°05'510.5
2017-Aug-12 16:00N 31°11' E 122°10'5 9.1
2017-Aug-12 15:30N 31°08' E 122°15'5 9.0
2017-Aug-12 15:00N 31°06' E 122°19'611.9
2017-Aug-12 14:30N 31°07' E 122°26'4 8.3
2017-Aug-12 13:58N 31°07' E 122°32'611.4
2017-Aug-12 13:26N 31°07' E 122°39'  

Dump ship's entire track history